sensor_id;sensor_type;location;lat;lon;timestamp;pressure;altitude;pressure_sealevel;temperature;humidity
34931;BME280;21134;49.646;8.560;2022-10-19T00:02:17;101656.72;;;14.79;100.00
34931;BME280;21134;49.646;8.560;2022-10-19T00:04:44;101653.28;;;14.79;100.00
34931;BME280;21134;49.646;8.560;2022-10-19T00:07:12;101654.16;;;14.78;100.00
34931;BME280;21134;49.646;8.560;2022-10-19T00:09:38;101655.00;;;14.71;100.00
34931;BME280;21134;49.646;8.560;2022-10-19T00:12:05;101653.31;;;14.71;100.00
34931;BME280;21134;49.646;8.560;2022-10-19T00:14:31;101650.72;;;14.67;100.00
34931;BME280;21134;49.646;8.560;2022-10-19T00:16:57;101644.69;;;14.63;100.00
34931;BME280;21134;49.646;8.560;2022-10-19T00:19:26;101647.28;;;14.60;100.00
34931;BME280;21134;49.646;8.560;2022-10-19T00:21:53;101650.69;;;14.53;100.00
34931;BME280;21134;49.646;8.560;2022-10-19T00:24:21;101642.94;;;14.43;100.00
34931;BME280;21134;49.646;8.560;2022-10-19T00:26:47;101647.22;;;14.48;100.00
34931;BME280;21134;49.646;8.560;2022-10-19T00:29:14;101647.22;;;14.45;100.00
34931;BME280;21134;49.646;8.560;2022-10-19T00:31:41;101646.38;;;14.39;100.00
34931;BME280;21134;49.646;8.560;2022-10-19T00:34:08;101640.34;;;14.39;100.00
34931;BME280;21134;49.646;8.560;2022-10-19T00:36:39;101641.19;;;14.35;100.00
34931;BME280;21134;49.646;8.560;2022-10-19T00:39:08;101636.88;;;14.35;100.00
34931;BME280;21134;49.646;8.560;2022-10-19T00:41:37;101638.63;;;14.38;100.00
34931;BME280;21134;49.646;8.560;2022-10-19T00:44:06;101637.75;;;14.30;100.00
34931;BME280;21134;49.646;8.560;2022-10-19T00:46:34;101632.59;;;14.28;100.00
34931;BME280;21134;49.646;8.560;2022-10-19T00:49:04;101641.16;;;14.23;100.00
34931;BME280;21134;49.646;8.560;2022-10-19T00:51:32;101642.03;;;14.20;100.00
34931;BME280;21134;49.646;8.560;2022-10-19T00:54:02;101632.59;;;14.21;100.00
34931;BME280;21134;49.646;8.560;2022-10-19T00:56:31;101642.88;;;14.17;100.00
34931;BME280;21134;49.646;8.560;2022-10-19T00:59:01;101635.97;;;14.13;100.00
34931;BME280;21134;49.646;8.560;2022-10-19T01:01:28;101638.56;;;14.13;100.00
34931;BME280;21134;49.646;8.560;2022-10-19T01:03:54;101635.13;;;14.13;100.00
34931;BME280;21134;49.646;8.560;2022-10-19T01:06:22;101632.56;;;14.11;100.00
34931;BME280;21134;49.646;8.560;2022-10-19T01:08:49;101623.94;;;14.00;100.00
34931;BME280;21134;49.646;8.560;2022-10-19T01:11:27;101612.78;;;13.98;100.00
34931;BME280;21134;49.646;8.560;2022-10-19T01:14:05;101607.63;;;13.95;100.00
34931;BME280;21134;49.646;8.560;2022-10-19T01:16:44;101615.34;;;13.96;100.00
34931;BME280;21134;49.646;8.560;2022-10-19T01:19:27;101612.78;;;13.98;100.00
34931;BME280;21134;49.646;8.560;2022-10-19T01:22:09;101613.63;;;13.97;100.00
34931;BME280;21134;49.646;8.560;2022-10-19T01:24:51;101610.22;;;13.98;100.00
34931;BME280;21134;49.646;8.560;2022-10-19T01:27:52;101614.50;;;13.98;100.00
34931;BME280;21134;49.646;8.560;2022-10-19T01:30:31;101614.50;;;14.01;100.00
34931;BME280;21134;49.646;8.560;2022-10-19T01:33:12;101611.94;;;13.98;100.00
34931;BME280;21134;49.646;8.560;2022-10-19T01:35:48;101602.50;;;13.98;100.00
34931;BME280;21134;49.646;8.560;2022-10-19T01:38:22;101605.91;;;13.95;100.00
34931;BME280;21134;49.646;8.560;2022-10-19T01:40:56;101605.03;;;13.93;100.00
34931;BME280;21134;49.646;8.560;2022-10-19T01:43:32;101595.63;;;13.97;100.00
34931;BME280;21134;49.646;8.560;2022-10-19T01:46:06;101604.19;;;13.96;100.00
34931;BME280;21134;49.646;8.560;2022-10-19T01:48:37;101600.75;;;13.92;100.00
34931;BME280;21134;49.646;8.560;2022-10-19T01:51:08;101599.91;;;13.93;100.00
34931;BME280;21134;49.646;8.560;2022-10-19T01:53:39;101599.91;;;13.96;100.00
34931;BME280;21134;49.646;8.560;2022-10-19T01:56:07;101595.63;;;13.97;100.00
34931;BME280;21134;49.646;8.560;2022-10-19T01:58:35;101593.91;;;13.93;100.00
34931;BME280;21134;49.646;8.560;2022-10-19T02:01:06;101583.63;;;13.94;100.00
34931;BME280;21134;49.646;8.560;2022-10-19T02:03:35;101590.47;;;13.95;100.00
34931;BME280;21134;49.646;8.560;2022-10-19T02:06:04;101581.91;;;13.95;100.00
34931;BME280;21134;49.646;8.560;2022-10-19T02:08:36;101593.94;;;13.98;100.00
34931;BME280;21134;49.646;8.560;2022-10-19T02:11:05;101585.31;;;13.92;100.00
34931;BME280;21134;49.646;8.560;2022-10-19T02:13:32;101581.06;;;13.94;100.00
34931;BME280;21134;49.646;8.560;2022-10-19T02:16:04;101583.63;;;13.94;100.00
34931;BME280;21134;49.646;8.560;2022-10-19T02:18:34;101585.34;;;13.95;100.00
34931;BME280;21134;49.646;8.560;2022-10-19T02:21:04;101575.00;;;13.91;100.00
34931;BME280;21134;49.646;8.560;2022-10-19T02:23:31;101573.31;;;13.90;100.00
34931;BME280;21134;49.646;8.560;2022-10-19T02:25:58;101572.47;;;13.97;100.00
34931;BME280;21134;49.646;8.560;2022-10-19T02:28:25;101577.63;;;13.95;100.00
34931;BME280;21134;49.646;8.560;2022-10-19T02:30:52;101564.72;;;13.94;100.00
34931;BME280;21134;49.646;8.560;2022-10-19T02:33:20;101569.03;;;13.96;100.00
34931;BME280;21134;49.646;8.560;2022-10-19T02:35:46;101570.75;;;13.99;100.00
34931;BME280;21134;49.646;8.560;2022-10-19T02:38:15;101569.91;;;14.00;100.00
34931;BME280;21134;49.646;8.560;2022-10-19T02:40:52;101569.91;;;14.00;100.00
34931;BME280;21134;49.646;8.560;2022-10-19T02:43:21;101573.34;;;13.98;100.00
34931;BME280;21134;49.646;8.560;2022-10-19T02:45:53;101576.78;;;14.01;100.00
34931;BME280;21134;49.646;8.560;2022-10-19T02:48:25;101573.34;;;13.99;100.00
34931;BME280;21134;49.646;8.560;2022-10-19T02:50:52;101573.34;;;13.98;100.00
34931;BME280;21134;49.646;8.560;2022-10-19T02:53:19;101564.75;;;13.95;100.00
34931;BME280;21134;49.646;8.560;2022-10-19T02:55:46;101562.16;;;13.94;100.00
34931;BME280;21134;49.646;8.560;2022-10-19T02:58:13;101560.44;;;13.90;100.00
34931;BME280;21134;49.646;8.560;2022-10-19T03:00:40;101559.56;;;13.91;100.00
34931;BME280;21134;49.646;8.560;2022-10-19T03:03:08;101565.59;;;13.85;100.00
34931;BME280;21134;49.646;8.560;2022-10-19T03:05:36;101566.41;;;13.84;100.00
34931;BME280;21134;49.646;8.560;2022-10-19T03:08:03;101568.16;;;13.88;100.00
34931;BME280;21134;49.646;8.560;2022-10-19T03:10:29;101563.84;;;13.84;100.00
34931;BME280;21134;49.646;8.560;2022-10-19T03:12:56;101568.16;;;13.85;100.00
34931;BME280;21134;49.646;8.560;2022-10-19T03:15:22;101563.00;;;13.87;100.00
34931;BME280;21134;49.646;8.560;2022-10-19T03:17:53;101557.88;;;13.91;100.00
34931;BME280;21134;49.646;8.560;2022-10-19T03:20:20;101560.47;;;13.91;100.00
34931;BME280;21134;49.646;8.560;2022-10-19T03:22:48;101557.88;;;13.93;100.00
34931;BME280;21134;49.646;8.560;2022-10-19T03:25:15;101556.19;;;13.98;100.00
34931;BME280;21134;49.646;8.560;2022-10-19T03:27:41;101556.16;;;13.96;100.00
34931;BME280;21134;49.646;8.560;2022-10-19T03:30:08;101556.19;;;13.98;100.00
34931;BME280;21134;49.646;8.560;2022-10-19T03:32:35;101552.75;;;13.98;100.00
34931;BME280;21134;49.646;8.560;2022-10-19T03:35:01;101552.75;;;13.99;100.00
34931;BME280;21134;49.646;8.560;2022-10-19T03:37:28;101561.31;;;14.00;100.00
34931;BME280;21134;49.646;8.560;2022-10-19T03:39:56;101563.03;;;14.02;100.00
34931;BME280;21134;49.646;8.560;2022-10-19T03:42:22;101561.34;;;14.01;100.00
34931;BME280;21134;49.646;8.560;2022-10-19T03:44:49;101560.47;;;14.02;100.00
34931;BME280;21134;49.646;8.560;2022-10-19T03:47:15;101560.47;;;14.02;100.00
34931;BME280;21134;49.646;8.560;2022-10-19T03:49:42;101554.44;;;13.97;100.00
34931;BME280;21134;49.646;8.560;2022-10-19T03:52:08;101558.72;;;13.93;100.00
34931;BME280;21134;49.646;8.560;2022-10-19T03:54:35;101557.88;;;13.88;100.00
34931;BME280;21134;49.646;8.560;2022-10-19T03:57:03;101557.00;;;13.83;100.00
34931;BME280;21134;49.646;8.560;2022-10-19T03:59:29;101559.56;;;13.80;100.00
34931;BME280;21134;49.646;8.560;2022-10-19T04:01:56;101545.81;;;13.73;100.00
34931;BME280;21134;49.646;8.560;2022-10-19T04:04:22;101552.69;;;13.70;100.00
34931;BME280;21134;49.646;8.560;2022-10-19T04:06:49;101550.97;;;13.66;100.00
34931;BME280;21134;49.646;8.560;2022-10-19T04:09:18;101552.63;;;13.62;100.00
34931;BME280;21134;49.646;8.560;2022-10-19T04:11:46;101552.63;;;13.58;100.00
34931;BME280;21134;49.646;8.560;2022-10-19T04:14:15;101554.31;;;13.53;100.00
34931;BME280;21134;49.646;8.560;2022-10-19T04:16:42;101556.88;;;13.51;100.00
34931;BME280;21134;49.646;8.560;2022-10-19T04:19:13;101556.88;;;13.48;100.00
34931;BME280;21134;49.646;8.560;2022-10-19T04:21:40;101552.56;;;13.42;100.00
34931;BME280;21134;49.646;8.560;2022-10-19T04:24:10;101554.28;;;13.37;100.00
34931;BME280;21134;49.646;8.560;2022-10-19T04:26:40;101555.97;;;13.35;100.00
34931;BME280;21134;49.646;8.560;2022-10-19T04:29:06;101557.69;;;13.35;100.00
34931;BME280;21134;49.646;8.560;2022-10-19T04:31:34;101556.78;;;13.30;100.00
34931;BME280;21134;49.646;8.560;2022-10-19T04:34:01;101561.06;;;13.29;100.00
34931;BME280;21134;49.646;8.560;2022-10-19T04:36:28;101566.22;;;13.32;100.00
34931;BME280;21134;49.646;8.560;2022-10-19T04:38:54;101564.50;;;13.28;100.00
34931;BME280;21134;49.646;8.560;2022-10-19T04:41:21;101564.44;;;13.23;100.00
34931;BME280;21134;49.646;8.560;2022-10-19T04:43:53;101561.84;;;13.20;100.00
34931;BME280;21134;49.646;8.560;2022-10-19T04:46:19;101560.13;;;13.15;100.00
34931;BME280;21134;49.646;8.560;2022-10-19T04:48:48;101568.66;;;13.14;100.00
34931;BME280;21134;49.646;8.560;2022-10-19T04:51:15;101560.91;;;13.08;100.00
34931;BME280;21134;49.646;8.560;2022-10-19T04:53:42;101566.91;;;13.03;100.00
34931;BME280;21134;49.646;8.560;2022-10-19T04:56:11;101559.16;;;12.99;100.00
34931;BME280;21134;49.646;8.560;2022-10-19T04:58:38;101548.00;;;12.97;100.00
34931;BME280;21134;49.646;8.560;2022-10-19T05:01:08;101538.56;;;12.94;100.00
34931;BME280;21134;49.646;8.560;2022-10-19T05:03:35;101545.41;;;12.95;100.00
34931;BME280;21134;49.646;8.560;2022-10-19T05:06:04;101535.16;;;12.92;100.00
34931;BME280;21134;49.646;8.560;2022-10-19T05:08:31;101545.38;;;12.83;100.00
34931;BME280;21134;49.646;8.560;2022-10-19T05:11:02;101541.06;;;12.80;100.00
34931;BME280;21134;49.646;8.560;2022-10-19T05:13:30;101539.34;;;12.76;100.00
34931;BME280;21134;49.646;8.560;2022-10-19T05:15:57;101543.59;;;12.76;100.00
34931;BME280;21134;49.646;8.560;2022-10-19T05:18:24;101536.75;;;12.75;100.00
34931;BME280;21134;49.646;8.560;2022-10-19T05:20:50;101536.72;;;12.72;100.00
34931;BME280;21134;49.646;8.560;2022-10-19T05:23:18;101534.16;;;12.73;100.00
34931;BME280;21134;49.646;8.560;2022-10-19T05:25:45;101528.97;;;12.66;100.00
34931;BME280;21134;49.646;8.560;2022-10-19T05:28:11;101527.19;;;12.60;100.00
34931;BME280;21134;49.646;8.560;2022-10-19T05:30:38;101535.78;;;12.57;100.00
34931;BME280;21134;49.646;8.560;2022-10-19T05:33:04;101534.06;;;12.60;100.00
34931;BME280;21134;49.646;8.560;2022-10-19T05:35:31;101528.97;;;12.64;100.00
34931;BME280;21134;49.646;8.560;2022-10-19T05:37:57;101528.16;;;12.73;100.00
34931;BME280;21134;49.646;8.560;2022-10-19T05:40:25;101529.84;;;12.69;100.00
34931;BME280;21134;49.646;8.560;2022-10-19T05:42:52;101533.25;;;12.70;100.00
34931;BME280;21134;49.646;8.560;2022-10-19T05:45:18;101537.56;;;12.71;100.00
34931;BME280;21134;49.646;8.560;2022-10-19T05:47:45;101535.84;;;12.71;100.00
34931;BME280;21134;49.646;8.560;2022-10-19T05:50:11;101538.41;;;12.68;100.00
34931;BME280;21134;49.646;8.560;2022-10-19T05:52:37;101535.84;;;12.67;100.00
34931;BME280;21134;49.646;8.560;2022-10-19T05:55:05;101540.09;;;12.66;100.00
34931;BME280;21134;49.646;8.560;2022-10-19T05:57:33;101541.78;;;12.63;100.00
34931;BME280;21134;49.646;8.560;2022-10-19T05:59:59;101540.09;;;12.65;100.00
34931;BME280;21134;49.646;8.560;2022-10-19T06:02:26;101541.81;;;12.69;100.00
34931;BME280;21134;49.646;8.560;2022-10-19T06:04:52;101541.81;;;12.69;100.00
34931;BME280;21134;49.646;8.560;2022-10-19T06:07:19;101534.97;;;12.65;100.00
34931;BME280;21134;49.646;8.560;2022-10-19T06:09:45;101534.97;;;12.65;100.00
34931;BME280;21134;49.646;8.560;2022-10-19T06:12:12;101538.41;;;12.68;100.00
34931;BME280;21134;49.646;8.560;2022-10-19T06:14:40;101537.53;;;12.65;100.00
34931;BME280;21134;49.646;8.560;2022-10-19T06:17:07;101534.97;;;12.65;100.00
34931;BME280;21134;49.646;8.560;2022-10-19T06:19:33;101543.50;;;12.61;100.00
34931;BME280;21134;49.646;8.560;2022-10-19T06:22:00;101538.34;;;12.59;100.00
34931;BME280;21134;49.646;8.560;2022-10-19T06:24:26;101537.44;;;12.55;100.00
34931;BME280;21134;49.646;8.560;2022-10-19T06:26:53;101540.88;;;12.56;100.00
34931;BME280;21134;49.646;8.560;2022-10-19T06:29:19;101538.31;;;12.56;100.00
34931;BME280;21134;49.646;8.560;2022-10-19T06:31:47;101540.91;;;12.57;100.00
34931;BME280;21134;49.646;8.560;2022-10-19T06:34:14;101543.47;;;12.59;100.00
34931;BME280;21134;49.646;8.560;2022-10-19T06:36:40;101546.06;;;12.62;100.00
34931;BME280;21134;49.646;8.560;2022-10-19T06:39:07;101540.09;;;12.65;100.00
34931;BME280;21134;49.646;8.560;2022-10-19T06:41:33;101544.41;;;12.67;100.00
34931;BME280;21134;49.646;8.560;2022-10-19T06:43:59;101552.97;;;12.71;100.00
34931;BME280;21134;49.646;8.560;2022-10-19T06:46:27;101540.16;;;12.74;100.00
34931;BME280;21134;49.646;8.560;2022-10-19T06:48:57;101543.63;;;12.80;100.00
34931;BME280;21134;49.646;8.560;2022-10-19T06:51:24;101542.81;;;12.88;100.00
34931;BME280;21134;49.646;8.560;2022-10-19T06:53:51;101544.59;;;12.96;100.00
34931;BME280;21134;49.646;8.560;2022-10-19T06:56:18;101543.78;;;13.07;100.00
34931;BME280;21134;49.646;8.560;2022-10-19T06:58:45;101542.16;;;13.19;100.00
34931;BME280;21134;49.646;8.560;2022-10-19T07:01:12;101544.78;;;13.29;100.00
34931;BME280;21134;49.646;8.560;2022-10-19T07:03:39;101546.56;;;13.37;100.00
34931;BME280;21134;49.646;8.560;2022-10-19T07:06:11;101549.19;;;13.51;100.00
34931;BME280;21134;49.646;8.560;2022-10-19T07:08:39;101542.34;;;13.61;100.00
34931;BME280;21134;49.646;8.560;2022-10-19T07:11:08;101557.81;;;13.75;100.00
34931;BME280;21134;49.646;8.560;2022-10-19T07:13:34;101546.72;;;13.85;100.00
34931;BME280;21134;49.646;8.560;2022-10-19T07:16:03;101550.19;;;14.05;100.00
34931;BME280;21134;49.646;8.560;2022-10-19T07:18:31;101549.34;;;14.17;100.00
34931;BME280;21134;49.646;8.560;2022-10-19T07:20:59;101551.06;;;14.32;100.00
34931;BME280;21134;49.646;8.560;2022-10-19T07:23:29;101549.34;;;14.48;100.00
34931;BME280;21134;49.646;8.560;2022-10-19T07:25:55;101551.09;;;14.58;100.00
34931;BME280;21134;49.646;8.560;2022-10-19T07:28:26;101555.41;;;14.65;100.00
34931;BME280;21134;49.646;8.560;2022-10-19T07:30:53;101549.38;;;14.75;100.00
34931;BME280;21134;49.646;8.560;2022-10-19T07:33:19;101551.06;;;14.88;100.00
34931;BME280;21134;49.646;8.560;2022-10-19T07:35:46;101562.25;;;14.80;100.00
34931;BME280;21134;49.646;8.560;2022-10-19T07:38:13;101564.84;;;14.84;100.00
34931;BME280;21134;49.646;8.560;2022-10-19T07:40:41;101563.09;;;14.91;100.00
34931;BME280;21134;49.646;8.560;2022-10-19T07:43:07;101559.66;;;14.94;100.00
34931;BME280;21134;49.646;8.560;2022-10-19T07:45:34;101560.50;;;15.02;100.00
34931;BME280;21134;49.646;8.560;2022-10-19T07:48:00;101557.06;;;15.07;100.00
34931;BME280;21134;49.646;8.560;2022-10-19T07:50:26;101558.75;;;15.22;100.00
34931;BME280;21134;49.646;8.560;2022-10-19T07:52:53;101565.53;;;15.40;100.00
34931;BME280;21134;49.646;8.560;2022-10-19T07:55:20;101569.81;;;15.52;100.00
34931;BME280;21134;49.646;8.560;2022-10-19T07:57:48;101565.44;;;15.71;100.00
34931;BME280;21134;49.646;8.560;2022-10-19T08:00:15;101562.81;;;15.80;100.00
34931;BME280;21134;49.646;8.560;2022-10-19T08:02:42;101560.19;;;15.88;100.00
34931;BME280;21134;49.646;8.560;2022-10-19T08:05:08;101566.13;;;16.03;100.00
34931;BME280;21134;49.646;8.560;2022-10-19T08:07:35;101565.31;;;15.94;100.00
34931;BME280;21134;49.646;8.560;2022-10-19T08:10:02;101574.72;;;16.06;100.00
34931;BME280;21134;49.646;8.560;2022-10-19T08:12:29;101571.22;;;16.11;100.00
34931;BME280;21134;49.646;8.560;2022-10-19T08:14:56;101567.72;;;16.20;100.00
34931;BME280;21134;49.646;8.560;2022-10-19T08:17:23;101568.47;;;16.40;100.00
34931;BME280;21134;49.646;8.560;2022-10-19T08:19:49;101565.72;;;16.60;100.00
34931;BME280;21134;49.646;8.560;2022-10-19T08:22:16;101567.34;;;16.67;99.11
34931;BME280;21134;49.646;8.560;2022-10-19T08:24:42;101559.66;;;16.61;97.81
34931;BME280;21134;49.646;8.560;2022-10-19T08:27:09;101559.81;;;16.43;97.97
34931;BME280;21134;49.646;8.560;2022-10-19T08:29:35;101559.09;;;16.25;98.10
34931;BME280;21134;49.646;8.560;2022-10-19T08:32:03;101551.47;;;16.07;99.49
34931;BME280;21134;49.646;8.560;2022-10-19T08:34:30;101560.19;;;15.92;99.36
34931;BME280;21134;49.646;8.560;2022-10-19T08:36:57;101550.75;;;15.87;100.00
34931;BME280;21134;49.646;8.560;2022-10-19T08:39:26;101558.47;;;15.88;100.00
34931;BME280;21134;49.646;8.560;2022-10-19T08:41:58;101549.84;;;15.91;100.00
34931;BME280;21134;49.646;8.560;2022-10-19T08:47:27;101547.25;;;15.95;100.00
34931;BME280;21134;49.646;8.560;2022-10-19T08:49:56;101544.53;;;16.14;100.00
34931;BME280;21134;49.646;8.560;2022-10-19T08:52:26;101540.16;;;16.23;100.00
34931;BME280;21134;49.646;8.560;2022-10-19T08:54:55;101540.06;;;16.36;99.16
34931;BME280;21134;49.646;8.560;2022-10-19T08:57:31;101535.66;;;16.50;99.87
34931;BME280;21134;49.646;8.560;2022-10-19T09:00:05;101531.13;;;16.73;97.04
34931;BME280;21134;49.646;8.560;2022-10-19T09:02:45;101535.22;;;16.96;95.89
34931;BME280;21134;49.646;8.560;2022-10-19T09:05:23;101535.06;;;17.10;94.61
34931;BME280;21134;49.646;8.560;2022-10-19T09:07:57;101530.81;;;17.07;91.99
34931;BME280;21134;49.646;8.560;2022-10-19T09:10:25;101531.53;;;17.20;90.36
34931;BME280;21134;49.646;8.560;2022-10-19T09:12:56;101537.38;;;17.34;90.68
34931;BME280;21134;49.646;8.560;2022-10-19T09:15:25;101533.09;;;17.33;89.61
34931;BME280;21134;49.646;8.560;2022-10-19T09:17:54;101537.66;;;17.10;89.70
34931;BME280;21134;49.646;8.560;2022-10-19T09:20:22;101538.53;;;17.10;90.83
34931;BME280;21134;49.646;8.560;2022-10-19T09:23:01;101535.09;;;17.08;90.23
34931;BME280;21134;49.646;8.560;2022-10-19T09:25:29;101534.16;;;17.15;90.41
34931;BME280;21134;49.646;8.560;2022-10-19T09:28:05;101534.97;;;17.19;89.70
34931;BME280;21134;49.646;8.560;2022-10-19T09:30:39;101534.09;;;17.23;88.16
34931;BME280;21134;49.646;8.560;2022-10-19T09:33:13;101539.13;;;17.32;88.75
34931;BME280;21134;49.646;8.560;2022-10-19T09:35:43;101533.75;;;17.49;87.09
34931;BME280;21134;49.646;8.560;2022-10-19T09:38:13;101534.75;;;17.37;86.64
34931;BME280;21134;49.646;8.560;2022-10-19T09:40:42;101530.28;;;17.50;86.90
34931;BME280;21134;49.646;8.560;2022-10-19T09:43:09;101533.69;;;17.55;86.50
34931;BME280;21134;49.646;8.560;2022-10-19T09:45:48;101530.97;;;17.64;84.84
34931;BME280;21134;49.646;8.560;2022-10-19T09:48:24;101530.31;;;17.49;86.26
34931;BME280;21134;49.646;8.560;2022-10-19T09:50:55;101522.59;;;17.46;86.13
34931;BME280;21134;49.646;8.560;2022-10-19T09:53:23;101528.84;;;17.28;86.56
34931;BME280;21134;49.646;8.560;2022-10-19T09:55:57;101524.72;;;17.10;87.18
34931;BME280;21134;49.646;8.560;2022-10-19T09:58:25;101528.31;;;16.96;88.00
34931;BME280;21134;49.646;8.560;2022-10-19T10:00:53;101527.56;;;16.87;88.41
34931;BME280;21134;49.646;8.560;2022-10-19T10:03:25;101520.78;;;16.73;89.06
34931;BME280;21134;49.646;8.560;2022-10-19T10:05:52;101519.94;;;16.73;89.08
34931;BME280;21134;49.646;8.560;2022-10-19T10:08:22;101513.94;;;16.69;90.25
34931;BME280;21134;49.646;8.560;2022-10-19T10:10:55;101520.81;;;16.70;90.30
34931;BME280;21134;49.646;8.560;2022-10-19T10:13:24;101521.56;;;16.83;90.54
34931;BME280;21134;49.646;8.560;2022-10-19T10:15:55;101518.81;;;17.00;89.83
34931;BME280;21134;49.646;8.560;2022-10-19T10:18:24;101517.72;;;17.21;89.21
34931;BME280;21134;49.646;8.560;2022-10-19T10:21:00;101516.56;;;17.43;87.73
34931;BME280;21134;49.646;8.560;2022-10-19T10:23:29;101519.00;;;17.54;87.16
34931;BME280;21134;49.646;8.560;2022-10-19T10:25:59;101518.75;;;17.74;86.12
34931;BME280;21134;49.646;8.560;2022-10-19T10:28:28;101522.16;;;17.76;85.46
34931;BME280;21134;49.646;8.560;2022-10-19T10:30:59;101523.28;;;17.57;85.57
34931;BME280;21134;49.646;8.560;2022-10-19T10:33:30;101524.84;;;17.70;85.60
34931;BME280;21134;49.646;8.560;2022-10-19T10:36:02;101523.22;;;17.63;85.08
34931;BME280;21134;49.646;8.560;2022-10-19T10:38:34;101524.88;;;17.69;85.28
34931;BME280;21134;49.646;8.560;2022-10-19T10:41:04;101518.88;;;17.65;84.69
34931;BME280;21134;49.646;8.560;2022-10-19T10:43:35;101519.69;;;17.69;84.39
34931;BME280;21134;49.646;8.560;2022-10-19T10:46:05;101518.81;;;17.70;83.72
34931;BME280;21134;49.646;8.560;2022-10-19T10:48:37;101511.19;;;17.57;83.92
34931;BME280;21134;49.646;8.560;2022-10-19T10:51:17;101507.91;;;17.46;84.60
34931;BME280;21134;49.646;8.560;2022-10-19T10:53:45;101505.19;;;17.57;84.89
34931;BME280;21134;49.646;8.560;2022-10-19T10:56:24;101506.09;;;17.51;84.19
34931;BME280;21134;49.646;8.560;2022-10-19T10:58:56;101506.03;;;17.59;84.41
34931;BME280;21134;49.646;8.560;2022-10-19T11:01:27;101501.63;;;17.64;83.88
34931;BME280;21134;49.646;8.560;2022-10-19T11:04:00;101505.94;;;17.65;84.38
34931;BME280;21134;49.646;8.560;2022-10-19T11:06:28;101503.22;;;17.77;83.83
34931;BME280;21134;49.646;8.560;2022-10-19T11:09:03;101490.16;;;17.83;82.30
34931;BME280;21134;49.646;8.560;2022-10-19T11:11:34;101484.81;;;17.94;82.49
34931;BME280;21134;49.646;8.560;2022-10-19T11:14:24;101488.09;;;18.05;81.72
34931;BME280;21134;49.646;8.560;2022-10-19T11:16:52;101487.31;;;18.00;81.37
34931;BME280;21134;49.646;8.560;2022-10-19T11:19:23;101481.22;;;18.04;81.85
34931;BME280;21134;49.646;8.560;2022-10-19T11:21:55;101484.69;;;18.02;81.60
34931;BME280;21134;49.646;8.560;2022-10-19T11:24:33;101479.22;;;18.19;80.65
34931;BME280;21134;49.646;8.560;2022-10-19T11:27:13;101471.44;;;18.20;81.11
34931;BME280;21134;49.646;8.560;2022-10-19T11:29:55;101459.44;;;18.15;80.64
34931;BME280;21134;49.646;8.560;2022-10-19T11:32:34;101454.56;;;17.98;81.42
34931;BME280;21134;49.646;8.560;2022-10-19T11:35:34;101454.47;;;18.04;81.53
34931;BME280;21134;49.646;8.560;2022-10-19T11:38:14;101440.66;;;18.02;81.86
34931;BME280;21134;49.646;8.560;2022-10-19T11:40:50;101440.50;;;18.11;81.28
34931;BME280;21134;49.646;8.560;2022-10-19T11:43:26;101430.25;;;18.06;80.26
34931;BME280;21134;49.646;8.560;2022-10-19T11:46:03;101421.69;;;18.03;81.09
34931;BME280;21134;49.646;8.560;2022-10-19T11:48:50;101420.75;;;18.05;80.62
34931;BME280;21134;49.646;8.560;2022-10-19T11:51:30;101415.34;;;18.19;80.04
34931;BME280;21134;49.646;8.560;2022-10-19T11:54:14;101420.72;;;18.55;79.36
34931;BME280;21134;49.646;8.560;2022-10-19T11:56:47;101414.28;;;18.77;77.70
34931;BME280;21134;49.646;8.560;2022-10-19T11:59:22;101403.66;;;18.88;78.50
34931;BME280;21134;49.646;8.560;2022-10-19T12:01:59;101408.44;;;19.08;76.99
34931;BME280;21134;49.646;8.560;2022-10-19T12:04:41;101400.81;;;19.00;76.31
34931;BME280;21134;49.646;8.560;2022-10-19T12:07:25;101393.94;;;18.98;77.17
34931;BME280;21134;49.646;8.560;2022-10-19T12:10:02;101397.44;;;18.97;77.35
34931;BME280;21134;49.646;8.560;2022-10-19T12:12:35;101394.00;;;18.95;77.81
34931;BME280;21134;49.646;8.560;2022-10-19T12:15:19;101392.13;;;19.03;77.34
34931;BME280;21134;49.646;8.560;2022-10-19T12:17:50;101391.88;;;19.14;76.20
34931;BME280;21134;49.646;8.560;2022-10-19T12:20:22;101387.97;;;18.96;76.83
34931;BME280;21134;49.646;8.560;2022-10-19T12:22:51;101384.97;;;18.72;77.43
34931;BME280;21134;49.646;8.560;2022-10-19T12:25:19;101388.47;;;18.70;77.94
34931;BME280;21134;49.646;8.560;2022-10-19T12:27:46;101384.97;;;18.74;78.37
34931;BME280;21134;49.646;8.560;2022-10-19T12:30:17;101379.59;;;18.83;77.23
34931;BME280;21134;49.646;8.560;2022-10-19T12:32:51;101376.88;;;18.89;76.79
34931;BME280;21134;49.646;8.560;2022-10-19T12:35:30;101369.69;;;19.02;76.81
34931;BME280;21134;49.646;8.560;2022-10-19T12:38:04;101385.19;;;19.03;75.75
34931;BME280;21134;49.646;8.560;2022-10-19T12:40:37;101378.50;;;18.93;75.65
34931;BME280;21134;49.646;8.560;2022-10-19T12:43:11;101375.63;;;18.64;75.86
34931;BME280;21134;49.646;8.560;2022-10-19T12:45:40;101372.84;;;18.74;76.38
34931;BME280;21134;49.646;8.560;2022-10-19T12:48:17;101365.31;;;18.61;76.88
34931;BME280;21134;49.646;8.560;2022-10-19T12:51:03;101356.66;;;18.62;77.56
34931;BME280;21134;49.646;8.560;2022-10-19T12:53:34;101365.63;;;18.44;77.22
34931;BME280;21134;49.646;8.560;2022-10-19T12:56:04;101364.84;;;18.42;77.73
34931;BME280;21134;49.646;8.560;2022-10-19T12:58:34;101361.19;;;18.50;77.95
34931;BME280;21134;49.646;8.560;2022-10-19T13:01:04;101362.94;;;18.50;78.20